Time;durP1;ratioP1;P1;durP2;ratioP2;P2;SDS_P1;SDS_P2;PMS_P1;PMS_P2;Temp;Humidity;BMP_temperature;BMP_pressure;BME280_temperature;BME280_humidity;BME280_pressure;Samples;Min_cycle;Max_cycle;Signal;HPM_P1;HPM_P2
2023/02/05 00:00:16;;;;;;;0.30;0.30;;;;;;;2.46;84.67;103188.03;4941026;28;20031;-59
2023/02/05 00:02:41;;;;;;;0.22;0.22;;;;;;;2.49;84.69;103177.75;4944254;28;20027;-56
2023/02/05 00:05:07;;;;;;;0.20;0.20;;;;;;;2.54;84.37;103169.03;4942497;28;20081;-60
2023/02/05 00:07:33;;;;;;;0.30;0.30;;;;;;;2.44;84.72;103159.03;4940908;28;20501;-59
2023/02/05 00:09:58;;;;;;;0.20;0.20;;;;;;;2.57;84.46;103152.63;4946151;28;20078;-60
2023/02/05 00:12:24;;;;;;;0.30;0.30;;;;;;;2.61;84.11;103140.47;4943580;28;20582;-60
2023/02/05 00:14:49;;;;;;;0.20;0.20;;;;;;;2.44;84.39;103140.41;4941521;28;20036;-59
2023/02/05 00:17:14;;;;;;;0.20;0.20;;;;;;;2.20;84.87;103138.09;4942939;28;20035;-60
2023/02/05 00:19:40;;;;;;;0.20;0.20;;;;;;;1.93;85.82;103139.69;4944223;28;20047;-58
2023/02/05 00:22:05;;;;;;;0.20;0.20;;;;;;;1.77;86.06;103142.03;4945275;28;20334;-58
2023/02/05 00:24:31;;;;;;;0.10;0.10;;;;;;;2.07;86.12;103146.34;4944190;28;20085;-58
2023/02/05 00:26:57;;;;;;;0.30;0.30;;;;;;;2.11;85.61;103128.91;4947955;28;20093;-58
2023/02/05 00:29:22;;;;;;;0.20;0.20;;;;;;;2.15;85.35;103135.34;4959363;28;20119;-59
2023/02/05 00:31:48;;;;;;;0.25;0.25;;;;;;;2.41;83.93;103132.94;4951357;28;20058;-60
2023/02/05 00:34:14;;;;;;;0.20;0.20;;;;;;;2.36;83.90;103132.81;4945213;28;20030;-57
2023/02/05 00:36:40;;;;;;;0.30;0.30;;;;;;;2.37;84.28;103123.81;4945449;28;20050;-58
2023/02/05 00:39:07;;;;;;;0.20;0.20;;;;;;;2.40;83.99;103110.03;4952731;28;20046;-58
2023/02/05 00:41:34;;;;;;;0.30;0.30;;;;;;;2.33;84.18;103109.38;4944227;28;20794;-55
2023/02/05 00:43:59;;;;;;;0.38;0.38;;;;;;;2.39;83.80;103089.81;4940776;28;20039;-58
2023/02/05 00:46:45;;;;;;;0.28;0.28;;;;;;;2.32;83.85;103080.41;4961009;28;20098;-57
2023/02/05 00:49:10;;;;;;;0.30;0.30;;;;;;;2.37;83.76;103075.16;4961665;28;20555;-56
2023/02/05 00:51:36;;;;;;;0.30;0.30;;;;;;;2.39;83.79;103068.56;4939776;28;20066;-59
2023/02/05 00:54:01;;;;;;;0.30;0.30;;;;;;;2.37;83.72;103068.00;4962125;28;20043;-59
2023/02/05 00:56:27;;;;;;;0.28;0.28;;;;;;;2.35;83.45;103062.09;4955949;28;20396;-56
2023/02/05 00:58:52;;;;;;;0.20;0.20;;;;;;;2.35;83.53;103074.59;4958762;28;20046;-58
2023/02/05 01:01:18;;;;;;;0.25;0.25;;;;;;;2.34;83.27;103075.66;4954205;28;20101;-60
2023/02/05 01:03:43;;;;;;;0.20;0.20;;;;;;;2.29;83.29;103075.53;4939319;28;20491;-59
2023/02/05 01:06:09;;;;;;;0.30;0.30;;;;;;;2.34;83.21;103073.78;4936244;28;20090;-60
2023/02/05 01:08:34;;;;;;;0.20;0.20;;;;;;;2.23;83.75;103061.34;4942965;28;20086;-55
2023/02/05 01:11:00;;;;;;;0.30;0.30;;;;;;;2.42;81.84;103054.78;4957541;28;20047;-61
2023/02/05 01:13:26;;;;;;;0.70;0.35;;;;;;;2.47;81.25;103060.19;4921808;28;20066;-58
2023/02/05 01:15:53;;;;;;;0.20;0.20;;;;;;;1.97;83.18;103059.31;4939697;28;20034;-61
2023/02/05 01:18:18;;;;;;;0.20;0.20;;;;;;;2.02;82.74;103064.69;4941368;28;20656;-56
2023/02/05 01:20:44;;;;;;;0.20;0.20;;;;;;;2.15;82.53;103056.44;4960090;28;20513;-59
2023/02/05 01:23:10;;;;;;;0.20;0.20;;;;;;;2.23;82.59;103047.25;4959449;28;20042;-60
2023/02/05 01:25:36;;;;;;;0.43;0.35;;;;;;;2.16;82.68;103041.28;4925675;28;20089;-58
2023/02/05 01:28:02;;;;;;;0.30;0.30;;;;;;;2.17;81.79;103042.94;4944523;28;20035;-61
2023/02/05 01:30:28;;;;;;;0.20;0.20;;;;;;;1.88;82.79;103026.19;4944293;28;20090;-60
2023/02/05 01:32:53;;;;;;;0.22;0.22;;;;;;;2.11;82.40;103025.28;4964038;28;20023;-58
2023/02/05 01:35:18;;;;;;;0.20;0.20;;;;;;;1.84;83.13;103023.19;4945023;28;20489;-58
2023/02/05 01:37:45;;;;;;;0.30;0.30;;;;;;;1.88;83.03;103025.41;4939458;28;20031;-56
2023/02/05 01:40:16;;;;;;;0.30;0.30;;;;;;;2.02;82.96;103013.41;4944065;28;20044;-57
2023/02/05 01:42:41;;;;;;;0.40;0.40;;;;;;;2.00;83.19;103020.81;4934350;28;20028;-60
2023/02/05 01:45:22;;;;;;;0.30;0.30;;;;;;;1.89;82.36;103014.53;4940647;28;20520;-58
2023/02/05 01:47:54;;;;;;;0.28;0.28;;;;;;;1.91;82.67;103006.31;4940156;29;20513;-58
2023/02/05 01:50:28;;;;;;;0.20;0.20;;;;;;;1.91;82.78;103007.13;4962082;28;20561;-57
2023/02/05 01:52:56;;;;;;;0.20;0.20;;;;;;;1.91;81.87;102999.16;4942998;28;20486;-57
2023/02/05 01:55:23;;;;;;;0.28;0.28;;;;;;;1.82;82.94;103006.69;4948987;28;20533;-55
2023/02/05 01:57:49;;;;;;;0.20;0.20;;;;;;;1.92;83.18;103003.41;4942987;28;20027;-58
2023/02/05 02:00:15;;;;;;;0.20;0.20;;;;;;;1.87;82.77;103003.31;4946926;28;20039;-60
2023/02/05 02:02:41;;;;;;;0.30;0.30;;;;;;;1.89;83.12;102997.78;4943608;28;20501;-59
2023/02/05 02:05:16;;;;;;;0.30;0.30;;;;;;;1.72;82.67;103003.84;4948169;29;20039;-58
2023/02/05 02:07:42;;;;;;;0.28;0.28;;;;;;;1.60;83.67;103015.56;4944255;28;20039;-59
2023/02/05 02:10:09;;;;;;;0.35;0.35;;;;;;;1.64;84.09;103004.25;4943335;28;20135;-56
2023/02/05 02:12:38;;;;;;;0.40;0.40;;;;;;;1.79;83.08;103004.53;4942485;28;20058;-58
2023/02/05 02:15:25;;;;;;;0.32;0.32;;;;;;;1.71;83.65;102996.94;4939079;28;20405;-58
2023/02/05 02:18:24;;;;;;;0.88;0.88;;;;;;;1.74;83.87;102990.34;4953524;28;20031;-60
2023/02/05 02:20:42;;;;;;;0.30;0.30;;;;;;;1.75;83.68;102982.13;4946828;28;20054;-58
2023/02/05 02:23:33;;;;;;;0.30;0.30;;;;;;;1.62;82.98;102989.59;4951842;28;20437;-56
2023/02/05 02:26:39;;;;;;;0.22;0.22;;;;;;;1.66;83.52;102998.69;4961846;28;20089;-58
2023/02/05 02:29:10;;;;;;;0.30;0.30;;;;;;;1.65;84.00;102997.88;4941113;28;20032;-60
2023/02/05 02:31:45;;;;;;;0.35;0.35;;;;;;;1.49;83.74;103001.28;4946868;28;20039;-60
2023/02/05 02:34:15;;;;;;;0.30;0.30;;;;;;;1.60;84.45;102981.88;4943391;28;20035;-59
2023/02/05 02:37:35;;;;;;;0.30;0.30;;;;;;;1.78;83.59;102978.22;4948999;28;20042;-59
2023/02/05 02:40:14;;;;;;;0.20;0.20;;;;;;;1.44;84.19;102993.22;4920035;29;20035;-60
2023/02/05 02:42:54;;;;;;;0.20;0.20;;;;;;;1.37;84.51;102992.56;4947816;28;20545;-59
2023/02/05 02:45:22;;;;;;;0.20;0.20;;;;;;;1.55;84.83;102975.63;4939517;29;20546;-56
2023/02/05 02:47:54;;;;;;;0.20;0.20;;;;;;;1.63;84.55;102983.22;4935943;28;20126;-55
2023/02/05 02:50:31;;;;;;;0.25;0.25;;;;;;;1.68;83.94;102986.00;4947508;28;20459;-59
2023/02/05 02:53:03;;;;;;;0.20;0.20;;;;;;;1.57;84.00;102992.13;4959331;28;20086;-59
2023/02/05 02:55:52;;;;;;;0.20;0.20;;;;;;;1.76;83.57;102981.09;4948360;28;20614;-58
2023/02/05 02:58:30;;;;;;;0.20;0.20;;;;;;;1.63;84.48;102977.91;4890040;29;20057;-60
2023/02/05 03:00:58;;;;;;;0.38;0.30;;;;;;;1.63;84.56;102988.53;4888754;29;20045;-54
2023/02/05 03:03:30;;;;;;;0.20;0.20;;;;;;;1.63;84.44;102993.84;4891058;29;20071;-57
2023/02/05 03:05:58;;;;;;;0.20;0.20;;;;;;;1.84;84.16;102993.97;4894699;29;20049;-58
2023/02/05 03:08:51;;;;;;;0.20;0.20;;;;;;;1.78;83.50;102984.31;4888037;29;20658;-60
2023/02/05 03:11:17;;;;;;;0.20;0.20;;;;;;;1.73;83.81;102989.53;4883717;29;20686;-56
2023/02/05 03:13:44;;;;;;;0.30;0.30;;;;;;;1.58;84.40;102986.59;4893618;29;20127;-58
2023/02/05 03:16:10;;;;;;;0.20;0.20;;;;;;;1.51;84.61;102990.44;4890087;29;20053;-58
2023/02/05 03:18:37;;;;;;;0.20;0.20;;;;;;;1.74;84.27;102985.03;4891787;29;20040;-57
2023/02/05 03:21:24;;;;;;;0.30;0.30;;;;;;;1.89;82.36;102985.31;4896822;29;20060;-59
2023/02/05 03:23:50;;;;;;;0.30;0.30;;;;;;;1.78;82.96;102986.97;4888698;29;20045;-60
2023/02/05 03:26:27;;;;;;;0.20;0.20;;;;;;;1.95;82.96;102988.84;4893294;29;20779;-58
2023/02/05 03:29:03;;;;;;;0.20;0.20;;;;;;;1.72;83.86;102982.59;4898622;29;20479;-58
2023/02/05 03:31:42;;;;;;;0.22;0.22;;;;;;;1.98;82.42;102980.41;4895580;29;20707;-57
2023/02/05 03:34:13;;;;;;;0.20;0.20;;;;;;;2.01;82.32;102974.63;4892546;29;20091;-58
2023/02/05 03:37:09;;;;;;;0.10;0.10;;;;;;;1.90;82.36;102970.97;4947583;28;20039;-59
2023/02/05 03:39:50;;;;;;;0.10;0.10;;;;;;;1.97;82.62;102976.97;4955477;28;20035;-60
2023/02/05 03:42:54;;;;;;;0.20;0.20;;;;;;;1.81;82.96;102965.25;4943696;28;20042;-58
2023/02/05 03:45:29;;;;;;;0.28;0.28;;;;;;;1.86;82.85;102951.25;4943789;28;20086;-51
2023/02/05 03:48:27;;;;;;;0.20;0.20;;;;;;;1.44;84.64;102961.38;4956087;28;20118;-57
2023/02/05 03:51:25;;;;;;;0.32;0.32;;;;;;;1.78;83.99;102949.00;4943047;28;20039;-56
2023/02/05 03:54:05;;;;;;;0.20;0.20;;;;;;;1.71;84.48;102948.31;4937128;28;20101;-60
2023/02/05 03:56:41;;;;;;;0.20;0.20;;;;;;;1.74;84.16;102938.03;4948690;28;20064;-57
2023/02/05 03:59:12;;;;;;;0.20;0.20;;;;;;;1.74;83.86;102926.63;4963265;28;20118;-58
2023/02/05 04:01:41;;;;;;;0.30;0.30;;;;;;;1.75;84.14;102920.25;4964847;28;20062;-61
2023/02/05 04:04:07;;;;;;;0.20;0.20;;;;;;;1.91;83.64;102921.31;4966107;28;20038;-58
2023/02/05 04:06:33;;;;;;;0.30;0.30;;;;;;;1.78;83.53;102917.13;4947585;29;20047;-54
2023/02/05 04:08:58;;;;;;;0.30;0.30;;;;;;;2.05;82.48;102917.31;4944328;28;20059;-57
2023/02/05 04:11:24;;;;;;;0.25;0.25;;;;;;;1.63;83.43;102899.06;4952111;29;20564;-52
2023/02/05 04:13:51;;;;;;;0.20;0.20;;;;;;;1.67;84.03;102904.72;4940122;28;20058;-57
2023/02/05 04:16:16;;;;;;;0.30;0.30;;;;;;;1.66;83.28;102906.59;4947093;28;20528;-53
2023/02/05 04:18:42;;;;;;;0.30;0.30;;;;;;;1.78;83.80;102906.50;4948261;29;20031;-59
2023/02/05 04:21:07;;;;;;;0.30;0.30;;;;;;;1.81;82.63;102909.50;4946552;28;20410;-58
2023/02/05 04:23:36;;;;;;;0.40;0.40;;;;;;;1.78;83.28;102907.28;4950812;28;20131;-58
2023/02/05 04:26:02;;;;;;;0.30;0.30;;;;;;;1.92;82.52;102907.00;4947411;28;20127;-57
2023/02/05 04:28:37;;;;;;;0.22;0.22;;;;;;;1.76;83.02;102904.06;4949963;28;20043;-57
2023/02/05 04:31:10;;;;;;;0.20;0.20;;;;;;;1.72;82.65;102891.53;4957424;28;20035;-60
2023/02/05 04:33:38;;;;;;;0.30;0.30;;;;;;;1.88;82.22;102905.88;4962956;28;20031;-58
2023/02/05 04:36:04;;;;;;;0.25;0.25;;;;;;;1.79;82.74;102911.56;4946923;28;20062;-58
2023/02/05 04:38:30;;;;;;;0.30;0.30;;;;;;;1.83;82.27;102903.94;4948992;28;20118;-56
2023/02/05 04:40:55;;;;;;;0.30;0.30;;;;;;;1.99;82.36;102911.13;4944784;28;20095;-58
2023/02/05 04:43:21;;;;;;;0.20;0.20;;;;;;;2.09;80.77;102905.94;4943431;29;20034;-57
2023/02/05 04:45:46;;;;;;;0.20;0.20;;;;;;;1.88;81.28;102905.88;4942114;28;20046;-57
2023/02/05 04:48:12;;;;;;;0.30;0.30;;;;;;;1.70;82.78;102896.28;4938910;28;20032;-56
2023/02/05 04:50:37;;;;;;;0.30;0.30;;;;;;;1.69;82.96;102892.00;4952693;28;20442;-56
2023/02/05 04:53:03;;;;;;;0.32;0.32;;;;;;;1.70;82.82;102891.75;4954123;28;20034;-56
2023/02/05 04:55:30;;;;;;;0.50;0.50;;;;;;;1.76;83.09;102885.50;4954071;28;20109;-58
2023/02/05 04:57:55;;;;;;;0.20;0.20;;;;;;;1.80;82.19;102889.28;4948871;28;20089;-58
2023/02/05 05:00:21;;;;;;;0.40;0.40;;;;;;;1.71;82.51;102872.13;4953661;28;20651;-56
2023/02/05 05:02:46;;;;;;;0.40;0.40;;;;;;;1.64;83.14;102866.19;4949333;28;20393;-60
2023/02/05 05:05:12;;;;;;;0.25;0.25;;;;;;;1.68;83.01;102861.19;4951385;28;20126;-58
2023/02/05 05:07:38;;;;;;;0.30;0.30;;;;;;;1.88;82.25;102858.06;4938473;28;20035;-60
2023/02/05 05:10:06;;;;;;;0.30;0.30;;;;;;;1.50;83.41;102853.44;4950235;28;20027;-58
2023/02/05 05:12:32;;;;;;;0.40;0.40;;;;;;;1.56;83.56;102853.31;4952923;28;20035;-59
2023/02/05 05:14:58;;;;;;;0.40;0.40;;;;;;;1.83;82.95;102872.88;4934852;28;20069;-60
2023/02/05 05:17:23;;;;;;;0.40;0.40;;;;;;;1.70;83.23;102867.84;4941593;28;20510;-58
2023/02/05 05:19:49;;;;;;;0.20;0.20;;;;;;;1.71;82.93;102853.56;4936345;28;20390;-56
2023/02/05 05:22:14;;;;;;;0.20;0.20;;;;;;;1.74;82.82;102847.75;4935589;28;20035;-58
2023/02/05 05:25:00;;;;;;;0.20;0.20;;;;;;;1.91;83.06;102862.88;4940455;28;20051;-55
2023/02/05 05:27:25;;;;;;;0.30;0.30;;;;;;;1.95;82.50;102862.16;4911942;29;20099;-59
2023/02/05 05:29:51;;;;;;;0.30;0.30;;;;;;;1.75;82.62;102844.06;4893783;29;20503;-60
2023/02/05 05:32:16;;;;;;;0.20;0.20;;;;;;;1.49;84.01;102839.38;4908390;29;20044;-60
2023/02/05 05:34:42;;;;;;;0.40;0.40;;;;;;;1.63;83.97;102823.94;4912615;29;20040;-60
2023/02/05 05:37:07;;;;;;;0.20;0.20;;;;;;;1.69;84.22;102821.13;4910303;29;20032;-60
2023/02/05 05:45:01;;;;;;;0.10;0.10;;;;;;;1.87;83.45;102824.56;4906865;29;20067;-60
2023/02/05 05:47:27;;;;;;;0.20;0.20;;;;;;;1.48;84.04;102816.53;4911857;29;20040;-60
2023/02/05 05:49:52;;;;;;;0.28;0.28;;;;;;;1.65;83.39;102821.84;4912577;29;20051;-59
2023/02/05 05:52:18;;;;;;;0.30;0.30;;;;;;;1.89;83.54;102817.16;4902711;29;20147;-60
2023/02/05 05:54:43;;;;;;;0.20;0.20;;;;;;;2.08;82.85;102827.28;4897262;29;20032;-58
2023/02/05 05:57:09;;;;;;;0.20;0.20;;;;;;;1.94;82.59;102822.56;4884686;29;20516;-59
2023/02/05 05:59:34;;;;;;;0.20;0.20;;;;;;;1.80;83.35;102824.75;4896762;29;20047;-58
2023/02/05 06:02:01;;;;;;;0.32;0.32;;;;;;;1.95;82.92;102819.69;4898758;29;20172;-59
2023/02/05 06:04:26;;;;;;;0.20;0.20;;;;;;;2.11;82.66;102807.41;4932930;28;20126;-60
2023/02/05 06:06:53;;;;;;;0.20;0.20;;;;;;;2.23;82.28;102803.59;4949168;29;20599;-59
2023/02/05 06:09:20;;;;;;;0.30;0.30;;;;;;;2.16;82.37;102808.28;4949606;28;20975;-58
2023/02/05 06:11:49;;;;;;;0.20;0.20;;;;;;;2.13;82.58;102807.97;4945944;29;20043;-59
2023/02/05 06:14:15;;;;;;;0.30;0.30;;;;;;;2.12;81.92;102801.03;4951425;28;20027;-58
2023/02/05 06:16:40;;;;;;;0.50;0.50;;;;;;;2.18;82.61;102797.41;4952991;29;20034;-59
2023/02/05 06:19:06;;;;;;;0.17;0.17;;;;;;;2.01;82.61;102793.97;4952182;28;20121;-57
2023/02/05 06:21:32;;;;;;;0.20;0.20;;;;;;;2.11;82.59;102786.16;4952514;28;20118;-57
2023/02/05 06:23:57;;;;;;;0.35;0.35;;;;;;;1.89;83.72;102778.16;4945511;28;20205;-59
2023/02/05 06:26:23;;;;;;;0.20;0.20;;;;;;;2.15;82.59;102768.69;4951918;28;20043;-60
2023/02/05 06:28:48;;;;;;;0.20;0.20;;;;;;;2.21;83.06;102783.63;4953101;29;20179;-57
2023/02/05 06:31:14;;;;;;;0.40;0.40;;;;;;;1.96;83.09;102781.44;4951139;28;20399;-59
2023/02/05 06:33:39;;;;;;;0.22;0.22;;;;;;;1.99;83.71;102785.47;4942954;28;20039;-59
2023/02/05 06:36:05;;;;;;;0.28;0.28;;;;;;;1.99;83.37;102773.00;4944692;28;20390;-57
2023/02/05 06:38:31;;;;;;;0.25;0.25;;;;;;;1.89;83.95;102772.03;4937736;29;20042;-59
2023/02/05 06:40:56;;;;;;;0.30;0.30;;;;;;;2.21;82.94;102760.50;4935257;28;20066;-60
2023/02/05 06:43:22;;;;;;;0.40;0.40;;;;;;;2.16;83.06;102765.78;4948383;28;20049;-60
2023/02/05 06:45:47;;;;;;;0.20;0.20;;;;;;;2.22;82.12;102758.66;4940436;28;20142;-58
2023/02/05 06:48:12;;;;;;;0.30;0.30;;;;;;;1.86;83.96;102751.28;4938685;29;20461;-58
2023/02/05 06:50:38;;;;;;;0.40;0.40;;;;;;;2.07;83.88;102764.56;4950014;28;20114;-58
2023/02/05 06:53:03;;;;;;;0.17;0.17;;;;;;;2.13;83.71;102770.78;4951704;28;20030;-59
2023/02/05 06:55:29;;;;;;;0.20;0.20;;;;;;;2.27;83.11;102775.47;4940352;28;20042;-59
2023/02/05 06:57:54;;;;;;;0.40;0.40;;;;;;;2.27;82.36;102803.91;4944566;28;20042;-57
2023/02/05 07:00:20;;;;;;;0.40;0.40;;;;;;;2.26;82.80;102792.50;4945478;28;20042;-60
2023/02/05 07:02:45;;;;;;;0.30;0.30;;;;;;;2.34;82.78;102805.31;4935030;28;20043;-60
2023/02/05 07:05:11;;;;;;;0.20;0.20;;;;;;;2.41;81.75;102815.78;4946101;28;20046;-54
2023/02/05 07:07:37;;;;;;;0.40;0.40;;;;;;;2.56;81.76;102821.28;4945614;28;20398;-56
2023/02/05 07:10:03;;;;;;;0.40;0.40;;;;;;;2.47;81.66;102826.25;4941369;28;21131;-59
2023/02/05 07:12:28;;;;;;;0.40;0.40;;;;;;;2.38;81.82;102824.25;4936559;28;20050;-58
2023/02/05 07:14:54;;;;;;;0.30;0.30;;;;;;;2.29;82.28;102812.44;4937734;29;20047;-59
2023/02/05 07:17:19;;;;;;;0.20;0.20;;;;;;;2.22;83.16;102811.81;4941820;28;20046;-59
2023/02/05 07:19:45;;;;;;;0.60;0.60;;;;;;;2.13;82.99;102807.97;4938022;29;20028;-60
2023/02/05 07:22:13;;;;;;;0.22;0.22;;;;;;;2.25;82.39;102801.50;4935238;28;20055;-60
2023/02/05 07:24:38;;;;;;;0.20;0.20;;;;;;;2.30;82.75;102798.09;4936959;28;20118;-57
2023/02/05 07:27:03;;;;;;;0.40;0.40;;;;;;;2.26;83.07;102804.97;4936285;28;20127;-57
2023/02/05 07:29:29;;;;;;;0.30;0.30;;;;;;;2.42;82.70;102790.81;4937513;29;20038;-59
2023/02/05 07:31:54;;;;;;;0.30;0.30;;;;;;;2.51;81.28;102790.16;4932287;29;20039;-60
2023/02/05 07:34:20;;;;;;;0.30;0.30;;;;;;;2.48;81.37;102787.16;4934602;28;20073;-60
2023/02/05 07:36:49;;;;;;;0.20;0.20;;;;;;;2.58;81.17;102793.41;4940937;29;20049;-60
2023/02/05 07:39:15;;;;;;;0.30;0.30;;;;;;;2.33;82.56;102790.44;4935284;28;20035;-58
2023/02/05 07:41:40;;;;;;;0.30;0.30;;;;;;;2.38;82.64;102787.06;4941581;29;20047;-60
2023/02/05 07:44:06;;;;;;;0.20;0.20;;;;;;;2.51;82.26;102787.50;4945433;28;20482;-60
2023/02/05 07:46:31;;;;;;;0.30;0.30;;;;;;;2.42;82.57;102804.13;4942611;28;20043;-60
2023/02/05 07:48:57;;;;;;;0.32;0.32;;;;;;;2.48;82.47;102808.41;4958767;28;20498;-59
2023/02/05 07:51:23;;;;;;;0.20;0.20;;;;;;;2.61;82.56;102808.84;4946985;28;20562;-60
2023/02/05 07:53:49;;;;;;;0.30;0.30;;;;;;;2.67;81.89;102809.75;4965202;28;20494;-60
2023/02/05 07:56:15;;;;;;;0.30;0.30;;;;;;;2.61;81.08;102800.88;4945640;28;20032;-60
2023/02/05 07:58:41;;;;;;;0.30;0.30;;;;;;;2.65;81.70;102793.22;4947821;28;20049;-60
2023/02/05 08:01:07;;;;;;;0.40;0.40;;;;;;;2.51;81.92;102792.00;4950270;28;20109;-59
2023/02/05 08:03:33;;;;;;;0.20;0.20;;;;;;;2.57;82.01;102793.66;4940621;28;20046;-59
2023/02/05 08:06:03;;;;;;;0.30;0.30;;;;;;;2.55;82.00;102804.56;4933393;28;20043;-60
2023/02/05 08:08:28;;;;;;;0.40;0.40;;;;;;;2.54;82.74;102804.78;4943189;28;20027;-59
2023/02/05 08:11:02;;;;;;;0.30;0.30;;;;;;;2.33;82.78;102797.59;4939581;28;20042;-60
2023/02/05 08:13:28;;;;;;;0.30;0.30;;;;;;;2.36;83.02;102803.22;4945933;28;20730;-60
2023/02/05 08:15:54;;;;;;;0.22;0.22;;;;;;;2.52;82.27;102796.25;4942604;28;20123;-60
2023/02/05 08:18:20;;;;;;;0.22;0.22;;;;;;;2.31;83.14;102800.50;4941087;28;20445;-59
2023/02/05 08:20:45;;;;;;;0.30;0.30;;;;;;;2.52;83.13;102797.06;4944317;28;20031;-58
2023/02/05 08:23:11;;;;;;;0.30;0.30;;;;;;;2.66;82.97;102786.84;4937843;28;20024;-60
2023/02/05 08:25:37;;;;;;;0.30;0.30;;;;;;;2.80;82.24;102784.59;4950094;29;20532;-57
2023/02/05 08:28:03;;;;;;;0.30;0.30;;;;;;;2.34;82.89;102796.56;4927651;29;20490;-58
2023/02/05 08:30:29;;;;;;;0.20;0.20;;;;;;;2.59;83.59;102805.63;4939822;28;20612;-60
2023/02/05 08:32:54;;;;;;;0.20;0.20;;;;;;;2.85;82.56;102795.28;4944378;28;20031;-59
2023/02/05 08:35:20;;;;;;;0.28;0.28;;;;;;;2.94;81.34;102796.47;4936019;28;20173;-59
2023/02/05 08:37:45;;;;;;;0.20;0.20;;;;;;;2.96;81.30;102807.66;4932500;28;20066;-59
2023/02/05 08:40:12;;;;;;;0.20;0.20;;;;;;;2.98;81.52;102810.88;4939101;28;20454;-57
2023/02/05 08:42:38;;;;;;;0.30;0.30;;;;;;;3.08;81.31;102805.66;4935647;28;20039;-57
2023/02/05 08:45:07;;;;;;;0.30;0.30;;;;;;;3.17;81.06;102801.50;4938365;28;20035;-58
2023/02/05 08:47:34;;;;;;;0.30;0.30;;;;;;;3.29;80.39;102804.81;4950186;28;20047;-57
2023/02/05 08:50:00;;;;;;;0.25;0.25;;;;;;;3.16;80.76;102800.69;4946626;28;20050;-60
2023/02/05 08:52:25;;;;;;;0.20;0.20;;;;;;;3.20;80.52;102801.78;4945102;28;20046;-59
2023/02/05 08:54:51;;;;;;;0.20;0.20;;;;;;;3.34;79.83;102803.00;4940518;28;20027;-60
2023/02/05 08:57:16;;;;;;;0.22;0.22;;;;;;;3.39;79.86;102811.00;4952878;28;20062;-59
2023/02/05 08:59:42;;;;;;;0.30;0.30;;;;;;;3.40;79.60;102803.84;4946478;28;20034;-59
2023/02/05 09:02:13;;;;;;;0.20;0.20;;;;;;;3.51;79.96;102808.19;4940423;28;20109;-59
2023/02/05 09:04:38;;;;;;;0.30;0.30;;;;;;;3.59;79.22;102808.53;4944667;28;20090;-58
2023/02/05 09:07:04;;;;;;;0.35;0.30;;;;;;;3.70;79.26;102821.94;4939612;28;20114;-58
2023/02/05 09:09:31;;;;;;;0.40;0.40;;;;;;;3.81;78.38;102827.09;4945409;28;20051;-60
2023/02/05 09:11:57;;;;;;;0.30;0.30;;;;;;;3.72;79.00;102827.81;4942318;28;20716;-57
2023/02/05 09:14:23;;;;;;;0.20;0.20;;;;;;;3.60;79.05;102820.78;4939542;28;20043;-59
2023/02/05 09:16:48;;;;;;;0.43;0.40;;;;;;;3.48;79.35;102819.34;4936582;28;20082;-59
2023/02/05 09:19:14;;;;;;;0.20;0.20;;;;;;;3.52;79.41;102826.56;4941633;28;20031;-58
2023/02/05 09:21:40;;;;;;;0.30;0.30;;;;;;;3.62;79.26;102829.31;4944198;28;20042;-59
2023/02/05 09:24:05;;;;;;;0.30;0.30;;;;;;;3.56;79.37;102830.31;4939287;28;21379;-58
2023/02/05 09:26:31;;;;;;;0.20;0.20;;;;;;;3.51;78.88;102824.97;4934168;28;20046;-58
2023/02/05 09:28:57;;;;;;;0.20;0.20;;;;;;;3.54;79.27;102829.00;4934389;28;20123;-59
2023/02/05 09:31:22;;;;;;;0.20;0.20;;;;;;;3.62;79.03;102834.63;4941868;28;20033;-58
2023/02/05 09:33:48;;;;;;;0.30;0.30;;;;;;;3.61;78.81;102827.72;4934684;28;20102;-59
2023/02/05 09:36:16;;;;;;;0.20;0.20;;;;;;;3.07;80.34;102815.50;4937194;28;20031;-56
2023/02/05 09:38:44;;;;;;;0.35;0.35;;;;;;;3.34;79.95;102815.50;4932752;28;20022;-60
2023/02/05 09:41:12;;;;;;;0.20;0.20;;;;;;;3.21;80.19;102822.03;4936089;28;20051;-58
2023/02/05 09:43:40;;;;;;;0.30;0.30;;;;;;;3.16;80.40;102824.63;4932014;28;20043;-59
2023/02/05 09:46:13;;;;;;;0.25;0.25;;;;;;;3.30;80.51;102828.50;4927830;28;20044;-59
2023/02/05 09:48:48;;;;;;;0.25;0.25;;;;;;;3.49;80.32;102837.72;4942106;28;20066;-60
2023/02/05 09:51:17;;;;;;;0.32;0.32;;;;;;;3.38;79.97;102832.56;4940872;28;20567;-56
2023/02/05 09:53:48;;;;;;;0.20;0.20;;;;;;;3.52;80.34;102828.44;4941963;28;20093;-56
2023/02/05 09:56:16;;;;;;;0.30;0.30;;;;;;;3.73;79.91;102818.75;4941941;28;20214;-53
2023/02/05 09:58:44;;;;;;;0.30;0.30;;;;;;;3.81;79.55;102831.59;4943401;28;20078;-56
2023/02/05 10:01:24;;;;;;;0.82;0.82;;;;;;;3.93;79.41;102827.69;4938445;28;20031;-55
2023/02/05 10:03:55;;;;;;;0.20;0.20;;;;;;;3.99;78.88;102823.22;4940002;29;20085;-52
2023/02/05 10:06:46;;;;;;;0.30;0.30;;;;;;;4.05;78.42;102817.63;4932491;29;20051;-58
2023/02/05 10:09:28;;;;;;;0.52;0.52;;;;;;;4.15;78.74;102827.56;4941863;29;20391;-56
2023/02/05 10:12:12;;;;;;;0.30;0.30;;;;;;;4.24;78.78;102829.47;4935240;29;20568;-53
2023/02/05 10:14:50;;;;;;;0.20;0.20;;;;;;;4.24;78.36;102831.38;4938723;29;20682;-53
2023/02/05 10:17:42;;;;;;;0.50;0.50;;;;;;;4.25;78.04;102832.97;4931747;28;20082;-59
2023/02/05 10:20:28;;;;;;;0.30;0.30;;;;;;;4.00;78.20;102822.13;4938723;28;20105;-60
2023/02/05 10:23:15;;;;;;;0.30;0.30;;;;;;;4.05;78.84;102843.47;4934243;29;20404;-56
2023/02/05 10:25:53;;;;;;;0.20;0.20;;;;;;;4.23;78.46;102829.75;4935475;28;20058;-55
2023/02/05 10:28:44;;;;;;;0.40;0.40;;;;;;;4.35;78.84;102833.03;4935056;28;20031;-58
2023/02/05 10:32:07;;;;;;;0.20;0.20;;;;;;;4.50;78.96;102838.41;4941621;28;20050;-57
2023/02/05 10:34:48;;;;;;;0.45;0.40;;;;;;;4.60;77.79;102830.47;4906333;29;20063;-60
2023/02/05 10:37:19;;;;;;;0.55;0.45;;;;;;;4.41;76.05;102821.31;4891585;29;20045;-54
2023/02/05 10:39:45;;;;;;;;;;;;;;;4.32;76.59;102817.53;4923160;28;20043;-59
2023/02/05 10:42:35;;;;;;;0.20;0.20;;;;;;;4.17;77.08;102828.09;4933238;28;20416;-58
2023/02/05 10:45:11;;;;;;;0.20;0.20;;;;;;;3.96;78.76;102823.72;4945710;28;20032;-59
2023/02/05 10:47:57;;;;;;;0.22;0.22;;;;;;;4.11;78.55;102837.13;4949680;28;20070;-59
2023/02/05 10:50:42;;;;;;;0.30;0.30;;;;;;;4.33;78.20;102840.47;4935998;28;20046;-60
2023/02/05 10:53:08;;;;;;;0.20;0.20;;;;;;;4.70;77.85;102854.53;4936074;28;20035;-60
2023/02/05 10:55:35;;;;;;;0.30;0.30;;;;;;;4.61;77.39;102850.75;4941489;28;20038;-58
2023/02/05 10:58:24;;;;;;;0.30;0.30;;;;;;;4.87;77.50;102857.00;4916941;28;21860;-55
2023/02/05 11:00:50;;;;;;;0.80;0.57;;;;;;;4.93;76.50;102862.09;4921512;28;20042;-56
2023/02/05 11:03:18;;;;;;;0.30;0.30;;;;;;;4.88;76.69;102867.41;4930580;28;20114;-60
2023/02/05 11:05:45;;;;;;;0.20;0.20;;;;;;;4.99;76.40;102863.72;4931465;28;20043;-56
2023/02/05 11:08:31;;;;;;;0.30;0.30;;;;;;;5.14;76.85;102862.94;4930257;28;20035;-55
2023/02/05 11:10:56;;;;;;;0.22;0.22;;;;;;;5.28;76.19;102875.50;4936619;28;20043;-55
2023/02/05 11:13:23;;;;;;;0.30;0.30;;;;;;;5.35;75.37;102878.75;4927008;28;20158;-60
2023/02/05 11:16:07;;;;;;;0.30;0.30;;;;;;;5.45;74.63;102873.44;4939926;28;20433;-57
2023/02/05 11:18:44;;;;;;;0.30;0.30;;;;;;;5.36;72.80;102877.66;4937097;28;20039;-57
2023/02/05 11:21:10;;;;;;;0.20;0.20;;;;;;;5.17;72.88;102878.44;4948641;28;20101;-59
2023/02/05 11:23:41;;;;;;;0.30;0.30;;;;;;;5.17;72.96;102889.09;4947013;28;20035;-58
2023/02/05 11:26:33;;;;;;;0.30;0.30;;;;;;;5.17;73.67;102878.44;4939398;28;20455;-61
2023/02/05 11:29:18;;;;;;;0.22;0.22;;;;;;;4.56;75.41;102888.06;4922227;28;20139;-60
2023/02/05 11:31:44;;;;;;;0.20;0.20;;;;;;;5.02;74.04;102881.06;4929061;28;21312;-60
2023/02/05 11:34:13;;;;;;;0.30;0.30;;;;;;;4.99;73.25;102869.06;4927321;28;20031;-58
2023/02/05 11:36:49;;;;;;;0.30;0.30;;;;;;;4.96;73.75;102868.75;4934281;28;22833;-59
2023/02/05 11:39:38;;;;;;;0.20;0.20;;;;;;;4.62;75.93;102876.38;4932457;28;20038;-60
2023/02/05 11:42:14;;;;;;;0.20;0.20;;;;;;;4.76;75.58;102882.84;4923388;28;20079;-59
2023/02/05 11:44:52;;;;;;;0.30;0.30;;;;;;;4.88;75.54;102883.41;4929974;28;20110;-60
2023/02/05 11:47:44;;;;;;;0.30;0.30;;;;;;;5.00;75.84;102878.66;4934702;28;20087;-56
2023/02/05 11:50:23;;;;;;;0.20;0.20;;;;;;;5.14;75.92;102882.44;4938940;28;20459;-56
2023/02/05 11:52:49;;;;;;;0.20;0.20;;;;;;;5.10;75.96;102894.72;4945538;28;20055;-55